createdAt,value
2018-07-01T00:00:32.780Z,0.00
2018-07-01T00:01:32.775Z,0.00
2018-07-01T00:02:32.786Z,0.00
2018-07-01T00:03:32.776Z,0.00
2018-07-01T00:04:32.779Z,0.00
2018-07-01T00:05:32.770Z,0.00
2018-07-01T00:06:32.770Z,0.00
2018-07-01T00:07:32.764Z,0.00
2018-07-01T00:08:32.771Z,0.00
2018-07-01T00:09:32.769Z,0.00
2018-07-01T00:10:32.769Z,0.00
2018-07-01T00:11:32.765Z,0.00
2018-07-01T00:12:32.759Z,0.00
2018-07-01T00:13:32.757Z,0.00
2018-07-01T00:14:32.756Z,0.00
2018-07-01T00:15:32.754Z,0.00
2018-07-01T00:16:32.758Z,0.00
2018-07-01T00:17:32.756Z,0.00
2018-07-01T00:18:32.752Z,0.00
2018-07-01T00:19:32.748Z,0.00
2018-07-01T00:20:32.754Z,0.00
2018-07-01T00:21:32.748Z,0.00
2018-07-01T00:22:32.750Z,0.00
2018-07-01T00:23:32.747Z,0.00
2018-07-01T00:24:32.743Z,0.00
2018-07-01T00:25:32.739Z,0.00
2018-07-01T00:26:32.737Z,0.00
2018-07-01T00:27:32.737Z,0.00
2018-07-01T00:28:32.741Z,0.00
2018-07-01T00:29:32.735Z,0.00
2018-07-01T00:30:32.737Z,0.00
2018-07-01T00:31:32.734Z,0.00
2018-07-01T00:32:32.728Z,0.00
2018-07-01T00:33:32.726Z,0.00
2018-07-01T00:34:32.729Z,0.00
2018-07-01T00:35:32.731Z,0.00
2018-07-01T00:36:32.720Z,0.00
2018-07-01T00:37:32.717Z,0.00
2018-07-01T00:38:32.716Z,0.00
2018-07-01T00:39:32.715Z,0.00
2018-07-01T00:40:32.718Z,0.00
2018-07-01T00:41:32.713Z,0.00
2018-07-01T00:42:32.716Z,0.00
2018-07-01T00:43:32.710Z,0.00
2018-07-01T00:44:32.703Z,0.00
2018-07-01T00:45:32.703Z,0.00
2018-07-01T00:46:32.701Z,0.00
2018-07-01T00:47:32.697Z,0.00
2018-07-01T00:48:32.703Z,0.00
2018-07-01T00:49:32.699Z,0.00
2018-07-01T00:50:32.693Z,0.00
2018-07-01T00:51:32.689Z,0.00
2018-07-01T00:52:32.696Z,0.00
2018-07-01T00:53:32.690Z,0.00
2018-07-01T00:54:32.687Z,0.00
2018-07-01T00:55:32.688Z,0.00
2018-07-01T00:56:32.681Z,0.00
2018-07-01T00:57:32.678Z,0.00
2018-07-01T00:58:32.674Z,0.00
2018-07-01T00:59:32.671Z,0.00
2018-07-01T01:00:32.679Z,0.00
2018-07-01T01:01:32.673Z,0.00
2018-07-01T01:02:32.670Z,0.00
2018-07-01T01:03:32.669Z,0.00
2018-07-01T01:04:32.664Z,0.00
2018-07-01T01:05:32.659Z,0.00
2018-07-01T01:06:32.660Z,0.00
2018-07-01T01:07:32.658Z,0.00
2018-07-01T01:08:32.651Z,0.00
2018-07-01T01:09:32.648Z,0.00
2018-07-01T01:10:32.648Z,0.00
2018-07-01T01:11:32.643Z,0.00
2018-07-01T01:12:32.647Z,0.00
2018-07-01T01:13:32.644Z,0.00
2018-07-01T01:14:32.640Z,0.00
2018-07-01T01:15:32.642Z,0.00
2018-07-01T01:16:32.631Z,0.00
2018-07-01T01:17:32.628Z,0.00
2018-07-01T01:18:32.631Z,0.00
2018-07-01T01:19:32.623Z,0.00
2018-07-01T01:20:32.634Z,0.00
2018-07-01T01:21:32.625Z,0.00
2018-07-01T01:22:32.619Z,0.00
2018-07-01T01:23:32.613Z,0.00
2018-07-01T01:24:32.620Z,0.00
2018-07-01T01:25:32.615Z,0.00
2018-07-01T01:26:32.614Z,0.00
2018-07-01T01:27:32.610Z,0.00
2018-07-01T01:28:32.601Z,0.00
2018-07-01T01:29:32.599Z,0.00
2018-07-01T01:30:32.598Z,0.00
2018-07-01T01:31:32.595Z,0.00
2018-07-01T01:32:32.597Z,0.00
2018-07-01T01:33:32.594Z,0.00
2018-07-01T01:34:32.591Z,0.00
2018-07-01T01:35:32.591Z,0.00
2018-07-01T01:36:32.585Z,0.00
2018-07-01T01:37:32.579Z,0.00
2018-07-01T01:38:32.581Z,0.00
2018-07-01T01:39:32.578Z,0.00
2018-07-01T01:40:32.573Z,0.00
2018-07-01T01:41:32.571Z,0.00
2018-07-01T01:42:32.566Z,0.00
2018-07-01T01:43:32.564Z,0.00
2018-07-01T01:44:32.565Z,0.00
2018-07-01T01:45:32.562Z,0.00
2018-07-01T01:46:32.562Z,0.00
2018-07-01T01:47:32.557Z,0.00
2018-07-01T01:48:32.556Z,0.00
2018-07-01T01:49:32.554Z,0.00
2018-07-01T01:50:32.545Z,0.00
2018-07-01T01:51:32.540Z,0.00
2018-07-01T01:52:32.545Z,0.00
2018-07-01T01:53:32.540Z,0.00
2018-07-01T01:54:32.533Z,0.00
2018-07-01T01:55:32.530Z,0.00
2018-07-01T01:56:32.532Z,0.00
2018-07-01T01:57:32.531Z,0.00
2018-07-01T01:58:32.530Z,0.00
2018-07-01T01:59:32.524Z,0.00
2018-07-01T02:00:32.516Z,0.00
2018-07-01T02:01:32.514Z,0.00
2018-07-01T02:02:32.514Z,0.00
2018-07-01T02:03:32.510Z,0.00
2018-07-01T02:04:32.511Z,0.00
2018-07-01T02:05:32.508Z,0.00
2018-07-01T02:06:32.507Z,0.00
2018-07-01T02:07:32.500Z,0.00
2018-07-01T02:08:32.495Z,0.00
2018-07-01T02:09:32.491Z,0.00
2018-07-01T02:10:32.492Z,0.00
2018-07-01T02:11:32.489Z,0.00
2018-07-01T02:12:32.484Z,0.00
2018-07-01T02:13:32.479Z,0.00
2018-07-01T02:14:32.479Z,0.00
2018-07-01T02:15:32.474Z,0.00
2018-07-01T02:16:32.478Z,0.00
2018-07-01T02:17:32.472Z,0.00
2018-07-01T02:18:32.470Z,0.00
2018-07-01T02:19:32.469Z,0.00
2018-07-01T02:20:32.458Z,0.00
2018-07-01T02:21:32.459Z,0.00
2018-07-01T02:22:32.452Z,0.00
2018-07-01T02:23:32.452Z,0.00
2018-07-01T02:24:32.453Z,0.00
2018-07-01T02:25:32.447Z,0.00
2018-07-01T02:26:32.441Z,0.00
2018-07-01T02:27:32.437Z,0.00
2018-07-01T02:28:32.440Z,0.00
2018-07-01T02:29:32.439Z,0.00
2018-07-01T02:30:32.435Z,0.00
2018-07-01T02:31:32.434Z,0.00
2018-07-01T02:32:32.424Z,0.00
2018-07-01T02:33:32.422Z,0.00
2018-07-01T02:34:32.417Z,4.00
2018-07-01T02:35:32.633Z,4.00
2018-07-01T02:36:32.415Z,4.00
2018-07-01T02:37:32.412Z,0.00
2018-07-01T02:38:32.411Z,0.00
2018-07-01T02:39:32.406Z,4.00
2018-07-01T02:40:32.398Z,4.00
2018-07-01T02:41:32.397Z,0.00
2018-07-01T02:42:32.402Z,4.00
2018-07-01T02:43:32.393Z,4.00
2018-07-01T02:44:32.387Z,4.00
2018-07-01T02:45:32.385Z,8.00
2018-07-01T02:46:32.380Z,4.00
2018-07-01T02:47:32.378Z,4.00
2018-07-01T02:48:32.385Z,8.00
2018-07-01T02:49:32.376Z,8.00
2018-07-01T02:50:32.374Z,8.00
2018-07-01T02:51:32.378Z,8.00
2018-07-01T02:52:32.365Z,12.00
2018-07-01T02:53:32.359Z,12.00
2018-07-01T02:54:32.359Z,16.00
2018-07-01T02:55:32.403Z,20.00
2018-07-01T02:56:32.360Z,20.00
2018-07-01T02:57:32.351Z,20.00
2018-07-01T02:58:32.344Z,28.00
2018-07-01T02:59:32.340Z,28.00
2018-07-01T03:00:32.342Z,28.00
2018-07-01T03:01:32.349Z,36.00
2018-07-01T03:02:32.335Z,40.00
2018-07-01T03:03:32.331Z,44.00
2018-07-01T03:04:32.323Z,48.00
2018-07-01T03:05:32.320Z,52.00
2018-07-01T03:06:32.316Z,60.00
2018-07-01T03:07:32.314Z,64.00
2018-07-01T03:08:32.314Z,72.00
2018-07-01T03:09:32.311Z,80.00
2018-07-01T03:10:32.308Z,88.00
2018-07-01T03:11:32.305Z,96.00
2018-07-01T03:12:32.296Z,104.00
2018-07-01T03:13:32.294Z,112.00
2018-07-01T03:14:32.296Z,124.00
2018-07-01T03:15:32.294Z,132.00
2018-07-01T03:16:32.282Z,144.00
2018-07-01T03:17:32.280Z,156.00
2018-07-01T03:18:32.276Z,172.00
2018-07-01T03:19:32.273Z,184.00
2018-07-01T03:20:32.274Z,196.00
2018-07-01T03:21:32.272Z,212.00
2018-07-01T03:22:32.266Z,228.00
2018-07-01T03:23:32.268Z,244.00
2018-07-01T03:24:32.254Z,256.00
2018-07-01T03:25:32.252Z,276.00
2018-07-01T03:26:32.249Z,292.00
2018-07-01T03:27:32.244Z,316.00
2018-07-01T03:28:32.247Z,336.00
2018-07-01T03:29:32.244Z,356.00
2018-07-01T03:30:32.235Z,376.00
2018-07-01T03:31:32.230Z,396.00
2018-07-01T03:32:32.233Z,416.00
2018-07-01T03:33:32.228Z,440.00
2018-07-01T03:34:32.225Z,464.00
2018-07-01T03:35:32.220Z,488.00
2018-07-01T03:36:32.212Z,508.00
2018-07-01T03:37:32.210Z,532.00
2018-07-01T03:38:32.213Z,556.00
2018-07-01T03:39:32.208Z,580.00
2018-07-01T03:40:32.198Z,604.00
2018-07-01T03:41:32.196Z,628.00
2018-07-01T03:42:32.193Z,656.00
2018-07-01T03:43:32.188Z,680.00
2018-07-01T03:44:32.190Z,704.00
2018-07-01T03:45:32.188Z,732.00
2018-07-01T03:46:32.178Z,760.00
2018-07-01T03:47:32.176Z,784.00
2018-07-01T03:48:32.176Z,808.00
2018-07-01T03:49:32.174Z,836.00
2018-07-01T03:50:32.169Z,868.00
2018-07-01T03:51:32.163Z,896.00
2018-07-01T03:52:32.157Z,920.00
2018-07-01T03:53:32.153Z,948.00
2018-07-01T03:54:32.150Z,976.00
2018-07-01T03:55:32.151Z,1000.00
2018-07-01T03:56:32.147Z,1024.00
2018-07-01T03:57:32.146Z,1052.00
2018-07-01T03:58:32.142Z,1080.00
2018-07-01T03:59:32.138Z,1104.00
2018-07-01T04:00:32.199Z,1128.00
2018-07-01T04:01:32.125Z,1156.00
2018-07-01T04:02:32.128Z,1180.00
2018-07-01T04:03:32.124Z,1212.00
2018-07-01T04:04:32.116Z,1232.00
2018-07-01T04:05:32.111Z,1260.00
2018-07-01T04:06:32.111Z,1288.00
2018-07-01T04:07:32.103Z,1312.00
2018-07-01T04:08:32.104Z,1340.00
2018-07-01T04:09:32.102Z,1368.00
2018-07-01T04:10:32.102Z,1396.00
2018-07-01T04:11:32.094Z,1424.00
2018-07-01T04:12:32.087Z,1448.00
2018-07-01T04:13:32.084Z,1480.00
2018-07-01T04:14:32.080Z,1504.00
2018-07-01T04:15:32.076Z,1532.00
2018-07-01T04:16:32.078Z,1556.00
2018-07-01T04:17:32.074Z,1584.00
2018-07-01T04:18:32.069Z,1612.00
2018-07-01T04:19:32.064Z,1640.00
2018-07-01T04:20:32.065Z,1672.00
2018-07-01T04:21:32.062Z,1700.00
2018-07-01T04:22:32.057Z,1724.00
2018-07-01T04:23:32.053Z,1752.00
2018-07-01T04:24:32.046Z,1780.00
2018-07-01T04:25:32.043Z,1808.00
2018-07-01T04:26:32.040Z,1828.00
2018-07-01T04:27:32.036Z,1852.00
2018-07-01T04:28:32.037Z,1872.00
2018-07-01T04:29:32.035Z,1896.00
2018-07-01T04:30:32.031Z,1920.00
2018-07-01T04:31:32.028Z,1948.00
2018-07-01T04:32:32.019Z,1976.00
2018-07-01T04:33:32.016Z,2000.00
2018-07-01T04:34:32.018Z,2024.00
2018-07-01T04:35:32.015Z,2052.00
2018-07-01T04:36:32.006Z,2084.00
2018-07-01T04:37:32.004Z,2116.00
2018-07-01T04:38:32.000Z,2156.00
2018-07-01T04:39:31.999Z,2184.00
2018-07-01T04:40:31.998Z,2176.00
2018-07-01T04:41:31.995Z,2176.00
2018-07-01T04:42:31.996Z,2188.00
2018-07-01T04:43:31.990Z,2212.00
2018-07-01T04:44:31.981Z,2236.00
2018-07-01T04:45:31.978Z,2256.00
2018-07-01T04:46:31.977Z,2284.00
2018-07-01T04:47:31.976Z,2308.00
2018-07-01T04:48:31.976Z,2340.00
2018-07-01T04:49:31.971Z,2364.00
2018-07-01T04:50:31.963Z,2396.00
2018-07-01T04:51:31.959Z,2432.00
2018-07-01T04:52:31.961Z,2464.00
2018-07-01T04:53:31.958Z,2496.00
2018-07-01T04:54:31.957Z,2544.00
2018-07-01T04:55:31.953Z,2644.00
2018-07-01T04:56:31.945Z,2844.00
2018-07-01T04:57:31.943Z,3244.00
2018-07-01T04:58:31.940Z,4468.00
2018-07-01T04:59:31.937Z,7364.00
2018-07-01T05:00:31.939Z,11860.00
2018-07-01T05:01:31.937Z,15136.00
2018-07-01T05:02:31.951Z,15936.00
2018-07-01T05:03:31.929Z,16480.00
2018-07-01T05:04:31.924Z,17088.00
2018-07-01T05:05:31.921Z,17600.00
2018-07-01T05:06:31.924Z,18080.00
2018-07-01T05:07:31.922Z,18560.00
2018-07-01T05:08:31.916Z,19040.00
2018-07-01T05:09:31.915Z,19520.00
2018-07-01T05:10:31.915Z,19872.00
2018-07-01T05:11:31.914Z,20256.00
2018-07-01T05:12:31.918Z,20640.00
2018-07-01T05:13:31.919Z,20992.00
2018-07-01T05:14:31.918Z,21280.00
2018-07-01T05:15:31.918Z,21632.00
2018-07-01T05:16:31.915Z,21920.00
2018-07-01T05:17:31.916Z,22208.00
2018-07-01T05:18:31.917Z,22496.00
2018-07-01T05:19:31.918Z,22720.00
2018-07-01T05:20:31.925Z,23040.00
2018-07-01T05:21:31.927Z,23328.00
2018-07-01T05:22:31.925Z,23616.00
2018-07-01T05:23:31.928Z,23808.00
2018-07-01T05:24:31.935Z,24032.00
2018-07-01T05:25:31.938Z,24256.00
2018-07-01T05:26:31.942Z,24448.00
2018-07-01T05:27:31.988Z,24704.00
2018-07-01T05:28:31.944Z,24928.00
2018-07-01T05:29:31.947Z,25088.00
2018-07-01T05:30:31.952Z,25312.00
2018-07-01T05:31:31.956Z,25504.00
2018-07-01T05:32:31.966Z,25696.00
2018-07-01T05:33:31.970Z,25920.00
2018-07-01T05:34:31.975Z,26112.00
2018-07-01T05:35:31.977Z,26272.00
2018-07-01T05:36:31.978Z,26464.00
2018-07-01T05:37:31.983Z,26624.00
2018-07-01T05:38:31.993Z,26848.00
2018-07-01T05:39:31.997Z,26944.00
2018-07-01T05:40:31.998Z,27136.00
2018-07-01T05:41:32.004Z,27296.00
2018-07-01T05:42:32.010Z,27520.00
2018-07-01T05:43:32.015Z,27680.00
2018-07-01T05:44:32.026Z,27840.00
2018-07-01T05:45:32.031Z,28000.00
2018-07-01T05:46:32.039Z,28160.00
2018-07-01T05:47:32.041Z,28224.00
2018-07-01T05:48:32.042Z,28416.00
2018-07-01T05:49:32.049Z,28608.00
2018-07-01T05:50:32.055Z,28704.00
2018-07-01T05:51:32.062Z,28832.00
2018-07-01T05:52:32.073Z,28992.00
2018-07-01T05:53:32.079Z,29056.00
2018-07-01T05:54:32.083Z,29216.00
2018-07-01T05:55:32.089Z,29280.00
2018-07-01T05:56:32.098Z,29472.00
2018-07-01T05:57:32.105Z,29536.00
2018-07-01T05:58:32.111Z,29760.00
2018-07-01T05:59:32.117Z,29856.00
2018-07-01T06:00:32.120Z,29952.00
2018-07-01T06:01:32.127Z,30144.00
2018-07-01T06:02:32.137Z,30304.00
2018-07-01T06:03:32.139Z,30464.00
2018-07-01T06:04:32.151Z,30528.00
2018-07-01T06:05:32.159Z,30656.00
2018-07-01T06:06:32.167Z,30816.00
2018-07-01T06:07:32.173Z,30944.00
2018-07-01T06:08:32.209Z,31008.00
2018-07-01T06:09:32.184Z,31168.00
2018-07-01T06:10:32.195Z,31296.00
2018-07-01T06:11:32.201Z,31392.00
2018-07-01T06:12:32.204Z,31552.00
2018-07-01T06:13:32.212Z,31616.00
2018-07-01T06:14:32.218Z,31744.00
2018-07-01T06:15:32.226Z,31904.00
2018-07-01T06:16:32.288Z,32032.00
2018-07-01T06:17:32.256Z,32160.00
2018-07-01T06:18:32.254Z,32320.00
2018-07-01T06:19:32.261Z,32384.00
2018-07-01T06:20:32.263Z,32544.00
2018-07-01T06:21:32.270Z,32640.00
2018-07-01T06:22:32.278Z,32768.00
2018-07-01T06:23:32.290Z,32928.00
2018-07-01T06:24:32.304Z,32992.00
2018-07-01T06:25:32.308Z,33120.00
2018-07-01T06:26:32.313Z,33216.00
2018-07-01T06:27:32.317Z,33376.00
2018-07-01T06:28:32.331Z,33472.00
2018-07-01T06:29:32.339Z,33568.00
2018-07-01T06:30:32.346Z,33632.00
2018-07-01T06:31:32.354Z,33824.00
2018-07-01T06:32:32.358Z,34016.00
2018-07-01T06:33:32.366Z,34208.00
2018-07-01T06:34:32.375Z,34272.00
2018-07-01T06:35:32.383Z,34400.00
2018-07-01T06:36:32.396Z,34496.00
2018-07-01T06:37:32.405Z,34624.00
2018-07-01T06:38:32.414Z,34688.00
2018-07-01T06:39:32.421Z,34816.00
2018-07-01T06:40:32.427Z,34944.00
2018-07-01T06:41:32.436Z,35040.00
2018-07-01T06:42:32.449Z,35200.00
2018-07-01T06:43:32.458Z,35360.00
2018-07-01T06:44:32.461Z,35488.00
2018-07-01T06:45:32.470Z,35584.00
2018-07-01T06:46:32.480Z,35712.00
2018-07-01T06:47:32.490Z,35872.00
2018-07-01T06:48:32.500Z,36000.00
2018-07-01T06:49:32.538Z,36256.00
2018-07-01T06:50:32.521Z,36544.00
2018-07-01T06:51:32.529Z,37056.00
2018-07-01T06:52:32.535Z,37536.00
2018-07-01T06:53:32.544Z,37920.00
2018-07-01T06:54:32.553Z,37952.00
2018-07-01T06:55:32.562Z,38272.00
2018-07-01T06:56:32.667Z,38816.00
2018-07-01T06:57:32.588Z,39616.00
2018-07-01T06:58:32.592Z,40448.00
2018-07-01T06:59:32.602Z,41664.00
2018-07-01T07:00:32.616Z,43392.00
2018-07-01T07:01:32.626Z,46048.00
2018-07-01T07:02:32.711Z,49824.00
2018-07-01T07:03:32.647Z,56064.00
2018-07-01T07:04:32.650Z,63584.00
2018-07-01T07:05:32.663Z,72096.00
2018-07-01T07:06:32.672Z,74240.00
2018-07-01T07:07:32.681Z,71136.00
2018-07-01T07:08:32.698Z,67872.00
2018-07-01T07:09:32.707Z,67936.00
2018-07-01T07:10:32.717Z,69536.00
2018-07-01T07:11:32.726Z,69280.00
2018-07-01T07:12:32.731Z,68480.00
2018-07-01T07:13:32.742Z,70048.00
2018-07-01T07:14:32.760Z,72384.00
2018-07-01T07:15:32.766Z,74912.00
2018-07-01T07:16:32.773Z,76832.00
2018-07-01T07:17:32.785Z,77280.00
2018-07-01T07:18:32.795Z,80992.00
2018-07-01T07:19:32.805Z,81440.00
2018-07-01T07:20:32.824Z,84480.00
2018-07-01T07:21:32.834Z,91200.00
2018-07-01T07:22:32.847Z,100800.00
2018-07-01T07:23:32.857Z,103840.00
2018-07-01T07:24:32.927Z,103904.00
2018-07-01T07:25:32.877Z,102752.00
2018-07-01T07:26:32.887Z,100704.00
2018-07-01T07:27:32.898Z,103264.00
2018-07-01T07:28:32.914Z,105952.00
2018-07-01T07:29:32.927Z,103072.00
2018-07-01T07:30:32.934Z,109280.00
2018-07-01T07:31:32.946Z,120384.00
2018-07-01T07:32:32.962Z,118592.00
2018-07-01T07:33:32.976Z,111200.00
2018-07-01T07:34:32.987Z,105696.00
2018-07-01T07:35:32.999Z,108640.00
2018-07-01T07:36:33.016Z,107808.00
2018-07-01T07:37:33.019Z,102880.00
2018-07-01T07:38:33.032Z,96896.00
2018-07-01T07:39:33.044Z,95072.00
2018-07-01T07:40:33.061Z,94496.00
2018-07-01T07:41:33.073Z,90464.00
2018-07-01T07:42:33.085Z,86432.00
2018-07-01T07:43:33.100Z,84800.00
2018-07-01T07:44:33.104Z,88640.00
2018-07-01T07:45:33.122Z,88896.00
2018-07-01T07:46:33.136Z,83808.00
2018-07-01T07:47:33.149Z,81408.00
2018-07-01T07:48:33.157Z,84672.00
2018-07-01T07:49:33.171Z,90944.00
2018-07-01T07:50:33.184Z,90400.00
2018-07-01T07:51:33.198Z,76768.00
2018-07-01T07:52:33.215Z,69536.00
2018-07-01T07:53:33.229Z,74112.00
2018-07-01T07:54:33.242Z,75968.00
2018-07-01T07:55:33.255Z,76704.00
2018-07-01T07:56:33.263Z,75808.00
2018-07-01T07:57:33.275Z,73632.00
2018-07-01T07:58:33.290Z,73600.00
2018-07-01T07:59:33.305Z,73760.00
2018-07-01T08:00:33.320Z,61632.00
2018-07-01T08:01:33.332Z,63168.00
2018-07-01T08:02:33.341Z,66688.00
2018-07-01T08:03:33.352Z,65344.00
2018-07-01T08:04:33.370Z,61984.00
2018-07-01T08:05:33.383Z,61088.00
2018-07-01T08:06:33.398Z,63904.00
2018-07-01T08:07:33.409Z,66368.00
2018-07-01T08:08:33.419Z,67456.00
2018-07-01T08:09:33.432Z,65440.00
2018-07-01T08:10:33.442Z,61216.00
2018-07-01T08:11:33.455Z,60288.00
2018-07-01T08:12:33.473Z,60928.00
2018-07-01T08:13:33.488Z,60736.00
2018-07-01T08:14:33.498Z,61568.00
2018-07-01T08:15:33.510Z,62400.00
2018-07-01T08:16:33.519Z,60512.00
2018-07-01T08:17:33.532Z,57344.00
2018-07-01T08:18:33.550Z,55168.00
2018-07-01T08:19:33.562Z,53376.00
2018-07-01T08:20:33.571Z,52352.00
2018-07-01T08:21:33.585Z,52224.00
2018-07-01T08:22:33.598Z,54176.00
2018-07-01T08:23:33.611Z,54400.00
2018-07-01T08:24:33.629Z,52832.00
2018-07-01T08:25:33.643Z,52864.00
2018-07-01T08:26:33.656Z,55680.00
2018-07-01T08:27:33.669Z,58592.00
2018-07-01T08:28:33.678Z,56192.00
2018-07-01T08:29:33.693Z,50656.00
2018-07-01T08:30:33.706Z,50208.00
2018-07-01T08:31:33.718Z,53120.00
2018-07-01T08:32:33.736Z,57312.00
2018-07-01T08:33:33.750Z,57280.00
2018-07-01T08:34:33.766Z,57344.00
2018-07-01T08:35:33.772Z,58240.00
2018-07-01T08:36:33.793Z,58464.00
2018-07-01T08:37:33.803Z,56704.00
2018-07-01T08:38:33.822Z,56928.00
2018-07-01T08:39:33.831Z,59168.00
2018-07-01T08:40:33.839Z,67488.00
2018-07-01T08:41:33.852Z,73376.00
2018-07-01T08:42:33.867Z,68800.00
2018-07-01T08:43:33.880Z,57728.00
2018-07-01T08:44:33.897Z,51072.00
2018-07-01T08:45:33.909Z,48768.00
2018-07-01T08:46:33.921Z,48768.00
2018-07-01T08:47:33.933Z,47968.00
2018-07-01T08:48:33.945Z,45888.00
2018-07-01T08:49:33.956Z,44832.00
2018-07-01T08:50:33.975Z,44480.00
2018-07-01T08:51:33.986Z,44192.00
2018-07-01T08:52:34.008Z,43968.00
2018-07-01T08:53:34.011Z,44128.00
2018-07-01T08:54:34.026Z,44608.00
2018-07-01T08:55:34.037Z,44608.00
2018-07-01T08:56:34.057Z,45312.00
2018-07-01T08:57:34.070Z,45472.00
2018-07-01T08:58:34.084Z,45664.00
2018-07-01T08:59:34.106Z,45696.00
2018-07-01T09:00:34.109Z,46304.00
2018-07-01T09:01:34.123Z,46592.00
2018-07-01T09:02:34.136Z,47008.00
2018-07-01T09:03:34.150Z,47232.00
2018-07-01T09:04:34.171Z,47424.00
2018-07-01T09:05:34.186Z,47328.00
2018-07-01T09:06:34.194Z,47456.00
2018-07-01T09:07:34.208Z,47648.00
2018-07-01T09:08:34.307Z,48000.00
2018-07-01T09:09:34.245Z,48096.00
2018-07-01T09:10:34.264Z,48160.00
2018-07-01T09:11:34.274Z,48608.00
2018-07-01T09:12:34.284Z,48928.00
2018-07-01T09:13:34.301Z,48928.00
2018-07-01T09:14:34.314Z,48960.00
2018-07-01T09:15:34.334Z,48832.00
2018-07-01T09:16:34.349Z,49120.00
2018-07-01T09:17:34.364Z,49088.00
2018-07-01T09:18:34.380Z,49152.00
2018-07-01T09:19:34.394Z,49056.00
2018-07-01T09:20:34.405Z,48928.00
2018-07-01T09:21:34.421Z,48608.00
2018-07-01T09:22:34.442Z,48544.00
2018-07-01T09:23:34.497Z,48320.00
2018-07-01T09:24:34.465Z,48128.00
2018-07-01T09:25:34.481Z,47904.00
2018-07-01T09:26:34.496Z,47872.00
2018-07-01T09:27:34.512Z,47776.00
2018-07-01T09:28:34.531Z,47296.00
2018-07-01T09:29:34.545Z,47680.00
2018-07-01T09:30:34.562Z,46752.00
2018-07-01T09:31:34.576Z,46848.00
2018-07-01T09:32:34.588Z,46656.00
2018-07-01T09:33:34.603Z,46464.00
2018-07-01T09:34:34.676Z,46112.00
2018-07-01T09:35:34.633Z,46048.00
2018-07-01T09:36:34.655Z,45920.00
2018-07-01T09:37:34.671Z,45600.00
2018-07-01T09:38:34.684Z,45216.00
2018-07-01T09:39:34.698Z,44864.00
2018-07-01T09:40:34.717Z,44800.00
2018-07-01T09:41:34.735Z,45312.00
2018-07-01T09:42:34.749Z,45856.00
2018-07-01T09:43:34.764Z,53440.00
2018-07-01T09:44:34.776Z,76960.00
2018-07-01T09:45:34.791Z,96704.00
2018-07-01T09:46:34.812Z,100832.00
2018-07-01T09:47:34.822Z,90752.00
2018-07-01T09:48:34.843Z,85088.00
2018-07-01T09:49:34.857Z,89056.00
2018-07-01T09:50:34.891Z,98144.00
2018-07-01T09:51:34.889Z,100768.00
2018-07-01T09:52:34.902Z,97888.00
2018-07-01T09:53:34.916Z,93376.00
2018-07-01T09:54:34.936Z,95424.00
2018-07-01T09:55:34.950Z,99648.00
2018-07-01T09:56:34.961Z,99968.00
2018-07-01T09:57:34.976Z,101280.00
2018-07-01T09:58:34.992Z,101312.00
2018-07-01T09:59:35.007Z,99808.00
2018-07-01T10:00:35.030Z,95936.00
2018-07-01T10:01:35.044Z,94688.00
2018-07-01T10:02:35.059Z,92320.00
2018-07-01T10:03:35.074Z,94816.00
2018-07-01T10:04:35.084Z,92608.00
2018-07-01T10:05:35.099Z,94112.00
2018-07-01T10:06:35.114Z,96128.00
2018-07-01T10:07:35.129Z,97216.00
2018-07-01T10:08:35.148Z,98368.00
2018-07-01T10:09:35.216Z,97920.00
2018-07-01T10:10:35.175Z,95168.00
2018-07-01T10:11:35.190Z,93920.00
2018-07-01T10:12:35.211Z,95232.00
2018-07-01T10:13:35.225Z,91008.00
2018-07-01T10:14:35.242Z,87904.00
2018-07-01T10:15:35.255Z,86848.00
2018-07-01T10:16:35.268Z,91200.00
2018-07-01T10:17:35.283Z,90112.00
2018-07-01T10:18:35.300Z,86304.00
2018-07-01T10:19:35.313Z,86848.00
2018-07-01T10:20:35.334Z,87072.00
2018-07-01T10:21:35.353Z,90784.00
2018-07-01T10:22:35.364Z,91520.00
2018-07-01T10:23:35.380Z,93312.00
2018-07-01T10:24:35.390Z,93120.00
2018-07-01T10:25:35.406Z,93152.00
2018-07-01T10:26:35.449Z,92352.00
2018-07-01T10:27:35.445Z,90880.00
2018-07-01T10:28:35.452Z,89632.00
2018-07-01T10:29:35.468Z,90304.00
2018-07-01T10:30:35.486Z,90240.00
2018-07-01T10:31:35.498Z,89728.00
2018-07-01T10:32:35.519Z,88768.00
2018-07-01T10:33:35.585Z,86368.00
2018-07-01T10:34:35.552Z,85216.00
2018-07-01T10:35:35.565Z,84864.00
2018-07-01T10:36:35.575Z,87424.00
2018-07-01T10:37:35.591Z,86080.00
2018-07-01T10:38:35.607Z,85600.00
2018-07-01T10:39:35.622Z,83392.00
2018-07-01T10:40:35.642Z,84672.00
2018-07-01T10:41:35.658Z,85440.00
2018-07-01T10:42:35.669Z,85408.00
2018-07-01T10:43:35.684Z,84928.00
2018-07-01T10:44:35.707Z,84992.00
2018-07-01T10:45:35.720Z,85568.00
2018-07-01T10:46:35.740Z,87200.00
2018-07-01T10:47:35.751Z,88224.00
2018-07-01T10:48:35.765Z,86240.00
2018-07-01T10:49:35.779Z,84512.00
2018-07-01T10:50:35.793Z,83008.00
2018-07-01T10:51:35.866Z,84960.00
2018-07-01T10:52:35.828Z,86240.00
2018-07-01T10:53:35.845Z,83840.00
2018-07-01T10:54:35.859Z,84416.00
2018-07-01T10:55:35.873Z,83968.00
2018-07-01T10:56:35.885Z,85760.00
2018-07-01T10:57:35.930Z,87200.00
2018-07-01T10:58:35.923Z,88320.00
2018-07-01T10:59:35.935Z,88128.00
2018-07-01T11:00:35.948Z,90144.00
2018-07-01T11:01:35.962Z,91712.00
2018-07-01T11:02:35.979Z,93728.00
2018-07-01T11:03:35.994Z,96160.00
2018-07-01T11:04:36.014Z,97536.00
2018-07-01T11:05:36.029Z,95424.00
2018-07-01T11:06:36.043Z,94080.00
2018-07-01T11:07:36.058Z,94720.00
2018-07-01T11:08:36.068Z,94528.00
2018-07-01T11:09:36.083Z,97440.00
2018-07-01T11:10:36.100Z,97440.00
2018-07-01T11:11:36.118Z,91872.00
2018-07-01T11:12:36.131Z,95328.00
2018-07-01T11:13:36.151Z,100832.00
2018-07-01T11:14:36.156Z,103200.00
2018-07-01T11:15:36.170Z,103104.00
2018-07-01T11:16:36.191Z,108352.00
2018-07-01T11:17:36.205Z,113216.00
2018-07-01T11:18:36.223Z,115904.00
2018-07-01T11:19:36.232Z,114080.00
2018-07-01T11:20:36.245Z,112544.00
2018-07-01T11:21:36.258Z,114016.00
2018-07-01T11:22:36.272Z,118112.00
2018-07-01T11:23:36.286Z,112448.00
2018-07-01T11:24:36.307Z,54624.00
2018-07-01T11:25:36.320Z,9028.00
2018-07-01T11:26:36.416Z,5868.00
2018-07-01T11:27:36.514Z,5100.00
2018-07-01T11:28:36.354Z,4884.00
2018-07-01T11:29:36.367Z,4764.00
2018-07-01T11:30:36.385Z,4652.00
2018-07-01T11:31:36.394Z,4560.00
2018-07-01T11:32:36.403Z,4476.00
2018-07-01T11:33:36.412Z,4428.00
2018-07-01T11:34:36.425Z,4404.00
2018-07-01T11:35:36.432Z,4380.00
2018-07-01T11:36:36.447Z,4356.00
2018-07-01T11:37:36.457Z,4332.00
2018-07-01T11:38:36.465Z,4312.00
2018-07-01T11:39:36.472Z,4300.00
2018-07-01T11:40:36.477Z,4276.00
2018-07-01T11:41:36.485Z,4244.00
2018-07-01T11:42:36.554Z,4220.00
2018-07-01T11:43:36.500Z,4200.00
2018-07-01T11:44:36.580Z,4184.00
2018-07-01T11:45:36.521Z,4168.00
2018-07-01T11:46:36.522Z,4140.00
2018-07-01T11:47:36.530Z,4120.00
2018-07-01T11:48:36.541Z,4104.00
2018-07-01T11:49:36.547Z,4088.00
2018-07-01T11:50:36.553Z,4064.00
2018-07-01T11:51:36.559Z,4040.00
2018-07-01T11:52:36.561Z,4024.00
2018-07-01T11:53:36.567Z,4004.00
2018-07-01T11:54:36.572Z,3992.00
2018-07-01T11:55:36.581Z,3976.00
2018-07-01T11:56:36.588Z,3960.00
2018-07-01T11:57:36.594Z,3948.00
2018-07-01T11:58:36.601Z,3928.00
2018-07-01T11:59:36.605Z,3912.00
2018-07-01T12:00:36.607Z,3896.00
2018-07-01T12:01:36.611Z,3884.00
2018-07-01T12:02:36.623Z,3864.00
2018-07-01T12:03:36.626Z,3848.00
2018-07-01T12:04:36.629Z,3836.00
2018-07-01T12:05:36.693Z,3816.00
2018-07-01T12:06:36.640Z,3800.00
2018-07-01T12:07:36.644Z,3780.00
2018-07-01T12:08:36.650Z,3764.00
2018-07-01T12:09:36.655Z,3748.00
2018-07-01T12:10:36.656Z,3736.00
2018-07-01T12:11:36.660Z,3716.00